Time;durP1;ratioP1;P1;durP2;ratioP2;P2;SDS_P1;SDS_P2;PMS_P1;PMS_P2;Temp;Humidity;BMP_temperature;BMP_pressure;BME280_temperature;BME280_humidity;BME280_pressure;Samples;Min_cycle;Max_cycle;Signal;HPM_P1;HPM_P2
2021/04/23 00:01:49;;;;;;;6.28;3.20;;;13.90;99.90;;;;;;6339142;22;20010;-81
2021/04/23 00:04:16;;;;;;;10.38;3.40;;;13.90;99.90;;;;;;6339198;22;19999;-81
2021/04/23 00:06:50;;;;;;;8.27;3.80;;;13.80;99.90;;;;;;6339189;22;20013;-81
2021/04/23 00:09:23;;;;;;;7.05;3.50;;;13.80;99.90;;;;;;6339115;22;19999;-81
2021/04/23 00:11:59;;;;;;;6.60;2.83;;;13.80;99.90;;;;;;6340292;22;20003;-82
2021/04/23 00:14:34;;;;;;;5.47;3.20;;;13.80;99.90;;;;;;6353933;22;20006;-80
2021/04/23 00:17:01;;;;;;;5.90;2.58;;;13.80;99.90;;;;;;6339134;22;20006;-77
2021/04/23 00:19:28;;;;;;;8.77;3.70;;;13.80;99.90;;;;;;6339042;22;19998;-82
2021/04/23 00:21:56;;;;;;;10.70;3.53;;;13.80;99.90;;;;;;6311128;22;20017;-77
2021/04/23 00:24:23;;;;;;;13.18;4.18;;;13.80;99.90;;;;;;6338948;22;19998;-81
2021/04/23 00:26:49;;;;;;;10.45;3.08;;;13.70;99.90;;;;;;6311610;22;20006;-78
2021/04/23 00:29:16;;;;;;;7.38;3.42;;;13.70;99.90;;;;;;6339069;22;20091;-82
2021/04/23 00:34:28;;;;;;;5.78;3.22;;;13.70;99.90;;;;;;6338864;22;20067;-81
2021/04/23 00:36:54;;;;;;;6.80;3.70;;;13.70;99.90;;;;;;6339187;22;20014;-82
2021/04/23 00:39:20;;;;;;;7.75;3.33;;;13.70;99.90;;;;;;6339060;22;20032;-77
2021/04/23 00:41:47;;;;;;;11.43;3.78;;;13.70;99.90;;;;;;6338716;22;20094;-82
2021/04/23 00:44:13;;;;;;;5.78;2.88;;;13.70;99.90;;;;;;6338906;22;20005;-82
2021/04/23 00:46:39;;;;;;;8.32;4.25;;;13.70;99.90;;;;;;6338816;22;20022;-79
2021/04/23 00:49:06;;;;;;;7.50;3.70;;;13.70;99.90;;;;;;6338821;22;20321;-82
2021/04/23 00:51:42;;;;;;;6.47;3.58;;;13.60;99.90;;;;;;6311121;22;20437;-79
2021/04/23 00:54:10;;;;;;;7.47;3.75;;;13.60;99.90;;;;;;6311138;22;20336;-80
2021/04/23 00:56:39;;;;;;;7.97;3.08;;;13.60;99.90;;;;;;6338911;22;20078;-82
2021/04/23 00:59:08;;;;;;;5.75;3.40;;;13.60;99.90;;;;;;6310773;22;20387;-80
2021/04/23 01:01:43;;;;;;;9.20;3.65;;;13.60;99.90;;;;;;6338478;22;20037;-76
2021/04/23 01:04:12;;;;;;;11.25;3.65;;;13.50;99.90;;;;;;6338662;22;20010;-76
2021/04/23 01:06:39;;;;;;;8.85;3.47;;;13.50;99.90;;;;;;6311514;22;20026;-79
2021/04/23 01:09:08;;;;;;;11.10;4.93;;;13.50;99.90;;;;;;6338845;22;20038;-82
2021/04/23 01:11:35;;;;;;;4.72;3.08;;;13.50;99.90;;;;;;6338834;22;19998;-82
2021/04/23 01:14:01;;;;;;;14.82;3.72;;;13.50;99.90;;;;;;6338938;22;20378;-82
2021/04/23 01:16:27;;;;;;;7.13;3.15;;;13.50;99.90;;;;;;6338766;22;20003;-82
2021/04/23 01:18:54;;;;;;;7.88;3.00;;;13.50;99.90;;;;;;6338661;22;20010;-82
2021/04/23 01:21:25;;;;;;;5.60;2.90;;;13.50;99.90;;;;;;6338569;22;20428;-78
2021/04/23 01:23:53;;;;;;;5.15;2.90;;;13.40;99.90;;;;;;6338551;22;20029;-77
2021/04/23 01:26:23;;;;;;;10.52;3.72;;;13.40;99.90;;;;;;6339765;22;20003;-81
2021/04/23 01:28:51;;;;;;;6.75;2.97;;;13.40;99.90;;;;;;6352096;22;20052;-82
2021/04/23 01:31:19;;;;;;;7.85;3.47;;;13.50;99.90;;;;;;6338502;22;20068;-82
2021/04/23 01:33:49;;;;;;;7.32;3.60;;;13.40;99.90;;;;;;6338259;22;20006;-82
2021/04/23 01:36:16;;;;;;;13.60;4.20;;;13.40;99.90;;;;;;6338636;22;20373;-82
2021/04/23 01:38:47;;;;;;;6.20;3.33;;;13.50;99.90;;;;;;6310763;22;20027;-80
2021/04/23 01:41:14;;;;;;;9.35;3.63;;;13.50;99.90;;;;;;6338329;22;20007;-82
2021/04/23 01:43:41;;;;;;;5.38;3.28;;;13.50;99.90;;;;;;6338400;22;20034;-80
2021/04/23 01:46:08;;;;;;;13.10;3.92;;;13.50;99.90;;;;;;6338484;22;20007;-77
2021/04/23 01:48:34;;;;;;;13.50;2.67;;;13.50;99.90;;;;;;6338293;22;20003;-81
2021/04/23 01:51:02;;;;;;;10.18;3.33;;;13.50;99.90;;;;;;6338224;22;20433;-80
2021/04/23 01:53:28;;;;;;;5.57;3.42;;;13.50;99.90;;;;;;6310688;22;20093;-82
2021/04/23 01:55:54;;;;;;;6.40;2.90;;;13.50;99.90;;;;;;6338365;22;20007;-79
2021/04/23 01:58:21;;;;;;;4.65;3.15;;;13.50;99.90;;;;;;6338178;22;20056;-82
2021/04/23 02:00:50;;;;;;;7.35;3.35;;;13.50;99.90;;;;;;6338114;22;20010;-82
2021/04/23 02:03:18;;;;;;;6.75;3.22;;;13.50;99.90;;;;;;6338310;22;20026;-82
2021/04/23 02:05:45;;;;;;;8.90;2.97;;;13.50;99.90;;;;;;6310485;22;20013;-82
2021/04/23 02:08:13;;;;;;;6.18;3.72;;;13.50;99.90;;;;;;6338016;22;20006;-81
2021/04/23 02:10:43;;;;;;;5.90;3.70;;;13.50;99.90;;;;;;6338317;22;20444;-82
2021/04/23 02:13:09;;;;;;;10.88;3.60;;;13.50;99.90;;;;;;6338174;22;20013;-82
2021/04/23 02:15:38;;;;;;;9.75;2.83;;;13.50;99.90;;;;;;6338090;22;20325;-79
2021/04/23 02:18:05;;;;;;;5.15;3.05;;;13.50;99.90;;;;;;6338232;22;20435;-81
2021/04/23 02:20:34;;;;;;;3.17;2.47;;;13.50;99.90;;;;;;6338191;22;20011;-81
2021/04/23 02:23:02;;;;;;;5.25;3.35;;;13.50;99.90;;;;;;6338307;22;20003;-81
2021/04/23 02:25:30;;;;;;;9.15;3.38;;;13.40;99.90;;;;;;6310385;22;20006;-82
2021/04/23 02:27:56;;;;;;;6.65;2.85;;;13.40;99.90;;;;;;6338111;22;20011;-80
2021/04/23 02:30:34;;;;;;;6.13;3.40;;;13.30;99.90;;;;;;6337989;22;20078;-80
2021/04/23 02:33:00;;;;;;;8.38;2.97;;;13.30;99.90;;;;;;6338083;22;20006;-80
2021/04/23 02:35:27;;;;;;;11.57;3.00;;;13.30;99.90;;;;;;6337993;22;20090;-82
2021/04/23 02:37:54;;;;;;;9.23;2.92;;;13.30;99.90;;;;;;6337876;22;20006;-81
2021/04/23 02:40:25;;;;;;;6.03;2.72;;;13.30;99.90;;;;;;6338837;22;20010;-76
2021/04/23 02:42:54;;;;;;;8.73;2.97;;;13.30;99.90;;;;;;6351534;22;20035;-76
2021/04/23 02:45:23;;;;;;;5.32;3.22;;;13.30;99.90;;;;;;6339745;22;20095;-78
2021/04/23 02:47:49;;;;;;;8.45;2.83;;;13.30;99.90;;;;;;6340223;22;20328;-77
2021/04/23 02:50:20;;;;;;;7.60;2.65;;;13.20;99.90;;;;;;6312562;22;19999;-81
2021/04/23 02:52:46;;;;;;;7.72;2.70;;;13.20;99.90;;;;;;6340016;22;20014;-81
2021/04/23 02:55:14;;;;;;;7.97;2.67;;;13.20;99.90;;;;;;6339763;22;20030;-80
2021/04/23 02:57:40;;;;;;;4.95;3.03;;;13.30;99.90;;;;;;6339523;22;20018;-77
2021/04/23 03:00:15;;;;;;;8.02;3.13;;;13.30;99.90;;;;;;6312353;22;20070;-76
2021/04/23 03:02:41;;;;;;;7.32;2.70;;;13.30;99.90;;;;;;6339683;22;20010;-82
2021/04/23 03:05:08;;;;;;;4.00;2.70;;;13.30;99.90;;;;;;6339983;22;20070;-80
2021/04/23 03:07:34;;;;;;;5.15;2.92;;;13.30;99.90;;;;;;6339465;22;20013;-80
2021/04/23 03:10:00;;;;;;;5.15;2.58;;;13.20;99.90;;;;;;6339831;22;20428;-77
2021/04/23 03:12:26;;;;;;;3.55;2.55;;;13.20;99.90;;;;;;6339976;22;20014;-82
2021/04/23 03:14:52;;;;;;;8.38;2.42;;;13.30;99.90;;;;;;6339760;22;20104;-80
2021/04/23 03:17:18;;;;;;;4.63;2.83;;;13.20;99.90;;;;;;6339592;22;20432;-82
2021/04/23 03:19:44;;;;;;;7.60;3.00;;;13.30;99.90;;;;;;6339524;22;20421;-82
2021/04/23 03:22:10;;;;;;;6.05;2.25;;;13.20;99.90;;;;;;6339457;22;20021;-82
2021/04/23 03:24:35;;;;;;;4.35;2.13;;;13.30;99.90;;;;;;6339424;22;20026;-82
2021/04/23 03:27:03;;;;;;;4.07;2.83;;;13.30;99.90;;;;;;6339674;22;20003;-80
2021/04/23 03:29:29;;;;;;;3.20;1.83;;;13.30;99.90;;;;;;6339520;22;20025;-80
2021/04/23 03:31:55;;;;;;;5.95;2.15;;;13.30;99.90;;;;;;6339397;22;20038;-82
2021/04/23 03:34:22;;;;;;;5.13;2.17;;;13.30;99.90;;;;;;6339266;22;20005;-77
2021/04/23 03:36:48;;;;;;;5.70;1.63;;;13.20;99.90;;;;;;6339537;22;20233;-81
2021/04/23 03:39:14;;;;;;;4.78;1.60;;;13.20;99.90;;;;;;6339518;22;20306;-81
2021/04/23 03:41:41;;;;;;;5.03;2.92;;;13.10;99.90;;;;;;6339547;22;20464;-81
2021/04/23 03:44:09;;;;;;;7.78;1.95;;;13.20;99.90;;;;;;6339528;22;20006;-81
2021/04/23 03:46:35;;;;;;;5.15;2.17;;;13.20;99.90;;;;;;6339274;22;20052;-82
2021/04/23 03:49:01;;;;;;;13.25;2.33;;;13.20;99.90;;;;;;6339425;22;19995;-81
2021/04/23 03:51:27;;;;;;;6.90;1.58;;;13.20;99.90;;;;;;6339285;22;19999;-80
2021/04/23 03:53:54;;;;;;;7.32;2.10;;;13.30;99.90;;;;;;6339398;22;19994;-77
2021/04/23 03:56:21;;;;;;;3.90;1.73;;;13.40;99.90;;;;;;6342411;22;20128;-80
2021/04/23 03:58:49;;;;;;;8.48;1.80;;;13.40;99.90;;;;;;6345245;22;20010;-82
2021/04/23 04:01:19;;;;;;;6.90;1.65;;;13.50;99.90;;;;;;6339142;22;20041;-82
2021/04/23 04:03:46;;;;;;;6.20;2.53;;;13.50;99.90;;;;;;6339188;22;20459;-82
2021/04/23 04:06:12;;;;;;;5.05;1.80;;;13.50;99.90;;;;;;6339084;22;20006;-82
2021/04/23 04:08:38;;;;;;;4.90;1.50;;;13.50;99.90;;;;;;6311557;22;19999;-81
2021/04/23 04:11:05;;;;;;;4.20;1.90;;;13.50;99.90;;;;;;6339190;22;20460;-82
2021/04/23 04:13:32;;;;;;;5.07;1.90;;;13.50;99.90;;;;;;6339284;22;20497;-81
2021/04/23 04:15:58;;;;;;;3.28;1.50;;;13.50;99.90;;;;;;6338934;22;20328;-81
2021/04/23 04:18:25;;;;;;;4.75;1.65;;;13.50;99.90;;;;;;6311660;22;20006;-80
2021/04/23 04:20:52;;;;;;;3.92;1.48;;;13.50;99.90;;;;;;6338807;22;20011;-81
2021/04/23 04:23:19;;;;;;;6.22;2.60;;;13.50;99.90;;;;;;6339035;22;20060;-80
2021/04/23 04:25:49;;;;;;;3.83;2.20;;;13.50;99.90;;;;;;6338921;22;19995;-81
2021/04/23 04:28:15;;;;;;;4.22;1.67;;;13.50;99.90;;;;;;6338881;22;20425;-77
2021/04/23 04:30:41;;;;;;;5.28;1.90;;;13.60;99.90;;;;;;6338950;22;20055;-78
2021/04/23 04:33:09;;;;;;;5.15;2.35;;;13.60;99.90;;;;;;6339149;22;20002;-80
2021/04/23 04:35:35;;;;;;;3.10;1.55;;;13.60;99.90;;;;;;6311370;22;20014;-82
2021/04/23 04:38:02;;;;;;;5.40;1.63;;;13.60;99.90;;;;;;6339110;22;20005;-82
2021/04/23 04:40:29;;;;;;;7.32;2.42;;;13.60;99.90;;;;;;6338731;22;20014;-82
2021/04/23 04:42:56;;;;;;;3.13;2.05;;;13.60;99.90;;;;;;6339210;22;20332;-81
2021/04/23 04:45:25;;;;;;;2.95;1.92;;;13.60;99.90;;;;;;6338818;22;19995;-82
2021/04/23 04:47:51;;;;;;;4.30;1.90;;;13.60;99.90;;;;;;6339248;22;20014;-80
2021/04/23 04:50:25;;;;;;;7.50;2.42;;;13.60;99.90;;;;;;6339125;22;19995;-79
2021/04/23 04:52:52;;;;;;;6.10;1.80;;;13.60;99.90;;;;;;6338768;22;20009;-79
2021/04/23 04:55:19;;;;;;;9.20;2.30;;;13.60;99.90;;;;;;6339038;22;20006;-77
2021/04/23 04:57:45;;;;;;;5.43;1.77;;;13.60;99.90;;;;;;6338509;22;20437;-81
2021/04/23 05:00:13;;;;;;;2.72;1.52;;;13.60;99.90;;;;;;6339252;22;20002;-82
2021/04/23 05:02:39;;;;;;;5.70;2.20;;;13.60;99.90;;;;;;6341305;22;20003;-78
2021/04/23 05:05:07;;;;;;;5.18;2.20;;;13.60;99.90;;;;;;6339385;22;20002;-82
2021/04/23 05:07:34;;;;;;;5.00;2.55;;;13.60;99.90;;;;;;6310769;22;20002;-77
2021/04/23 05:10:00;;;;;;;3.25;2.10;;;13.60;99.90;;;;;;6339746;22;20432;-81
2021/04/23 05:12:27;;;;;;;8.35;3.40;;;13.60;99.90;;;;;;6347942;22;19995;-81
2021/04/23 05:14:53;;;;;;;6.57;1.90;;;13.70;99.90;;;;;;6338871;22;20006;-79
2021/04/23 05:17:19;;;;;;;4.07;1.98;;;13.70;99.90;;;;;;6310790;22;20055;-82
2021/04/23 05:19:45;;;;;;;2.85;2.05;;;13.70;99.90;;;;;;6339049;22;20003;-77
2021/04/23 05:22:10;;;;;;;4.68;2.85;;;13.70;99.90;;;;;;6338419;22;20022;-77
2021/04/23 05:24:36;;;;;;;2.23;1.50;;;13.70;99.90;;;;;;6338523;22;19999;-83
2021/04/23 05:27:02;;;;;;;5.33;3.07;;;13.70;99.90;;;;;;6338656;22;20286;-83
2021/04/23 05:29:28;;;;;;;4.78;3.00;;;13.70;99.90;;;;;;6338642;22;20225;-78
2021/04/23 05:31:54;;;;;;;5.37;2.10;;;13.70;99.90;;;;;;6338601;22;20066;-83
2021/04/23 05:34:20;;;;;;;7.45;2.33;;;13.70;99.90;;;;;;6338484;22;20241;-81
2021/04/23 05:36:46;;;;;;;13.93;3.13;;;13.70;99.90;;;;;;6338814;22;19998;-83
2021/04/23 05:39:13;;;;;;;4.32;2.55;;;13.60;99.90;;;;;;6338628;22;20009;-77
2021/04/23 05:41:41;;;;;;;3.47;2.35;;;13.60;99.90;;;;;;6338600;22;20017;-77
2021/04/23 05:44:08;;;;;;;7.18;3.00;;;13.70;99.90;;;;;;6338405;22;20121;-82
2021/04/23 05:46:35;;;;;;;5.80;2.42;;;13.70;99.90;;;;;;6338438;22;20436;-82
2021/04/23 05:49:01;;;;;;;5.25;2.63;;;13.70;99.90;;;;;;6338340;22;20021;-77
2021/04/23 05:51:28;;;;;;;9.32;2.85;;;13.70;99.90;;;;;;6338377;22;20003;-83
2021/04/23 05:53:54;;;;;;;10.35;3.05;;;13.70;99.90;;;;;;6338529;22;19998;-77
2021/04/23 05:56:19;;;;;;;5.95;2.40;;;13.70;99.90;;;;;;6310782;22;20252;-82
2021/04/23 05:58:45;;;;;;;5.13;2.65;;;13.70;99.90;;;;;;6338355;22;20057;-80
2021/04/23 06:01:11;;;;;;;5.93;2.85;;;13.70;99.90;;;;;;6338216;22;20432;-82
2021/04/23 06:03:37;;;;;;;4.35;2.63;;;13.70;99.90;;;;;;6310472;22;20034;-79
2021/04/23 06:06:03;;;;;;;6.65;3.15;;;13.70;99.90;;;;;;6338658;22;20010;-81
2021/04/23 06:08:29;;;;;;;6.25;2.60;;;13.70;99.90;;;;;;6310590;22;20030;-81
2021/04/23 06:10:55;;;;;;;2.73;2.30;;;13.70;99.90;;;;;;6338076;22;20437;-81
2021/04/23 06:13:21;;;;;;;11.07;3.40;;;13.70;99.90;;;;;;6338196;22;20233;-80
2021/04/23 06:15:48;;;;;;;5.90;2.85;;;13.70;99.90;;;;;;6337999;22;20029;-81
2021/04/23 06:18:15;;;;;;;10.55;2.95;;;13.70;99.90;;;;;;6338017;22;20003;-78
2021/04/23 06:20:42;;;;;;;7.53;2.75;;;13.70;99.90;;;;;;6309944;22;20067;-82
2021/04/23 06:23:09;;;;;;;5.60;2.95;;;13.70;99.90;;;;;;6310293;22;20014;-82
2021/04/23 06:25:35;;;;;;;6.68;2.90;;;13.70;99.90;;;;;;6339115;22;20412;-84
2021/04/23 06:28:03;;;;;;;9.00;3.50;;;13.70;99.90;;;;;;6312088;22;20374;-81
2021/04/23 06:30:33;;;;;;;6.97;3.20;;;13.70;99.90;;;;;;6338344;22;20002;-83
2021/04/23 06:33:06;;;;;;;6.28;2.60;;;13.70;99.90;;;;;;6338234;22;20370;-81
2021/04/23 06:35:32;;;;;;;7.00;3.03;;;13.70;99.90;;;;;;6310458;22;20042;-83
2021/04/23 06:37:58;;;;;;;4.20;2.40;;;13.70;99.90;;;;;;6337927;22;19995;-82
2021/04/23 06:40:25;;;;;;;4.28;2.85;;;13.70;99.90;;;;;;6337894;22;20354;-82
2021/04/23 06:42:51;;;;;;;6.50;2.50;;;13.60;99.90;;;;;;6337879;22;20018;-82
2021/04/23 06:45:19;;;;;;;4.55;2.33;;;13.60;99.90;;;;;;6338017;22;19999;-81
2021/04/23 06:47:46;;;;;;;5.18;3.13;;;13.60;99.90;;;;;;6337829;22;20417;-77
2021/04/23 06:50:15;;;;;;;7.00;2.67;;;13.60;99.90;;;;;;6337928;22;20429;-81
2021/04/23 06:52:41;;;;;;;4.88;2.45;;;13.60;99.90;;;;;;6338182;22;20006;-82
2021/04/23 06:55:10;;;;;;;5.22;3.08;;;13.60;99.90;;;;;;6337994;22;20002;-82
2021/04/23 06:57:36;;;;;;;7.32;2.88;;;13.60;99.90;;;;;;6337744;22;20021;-83
2021/04/23 07:00:09;;;;;;;5.22;3.08;;;13.60;99.90;;;;;;6310263;22;19999;-83
2021/04/23 07:02:36;;;;;;;7.13;2.88;;;13.60;99.90;;;;;;6311065;22;20059;-81
2021/04/23 07:05:03;;;;;;;4.90;1.90;;;13.60;99.90;;;;;;6338043;22;19995;-82
2021/04/23 07:07:29;;;;;;;6.03;2.40;;;13.70;99.90;;;;;;6337736;22;20124;-83
2021/04/23 07:09:56;;;;;;;4.78;2.80;;;13.80;99.90;;;;;;6337966;22;20023;-83
2021/04/23 07:12:22;;;;;;;5.13;2.40;;;13.70;99.90;;;;;;6337783;22;20073;-83
2021/04/23 07:14:48;;;;;;;3.45;2.58;;;13.80;99.90;;;;;;6310806;22;20026;-83
2021/04/23 07:17:15;;;;;;;4.13;2.42;;;13.80;99.90;;;;;;6337809;22;19999;-82
2021/04/23 07:19:41;;;;;;;5.05;2.30;;;13.80;99.90;;;;;;6284333;22;20007;-83
2021/04/23 07:22:07;;;;;;;6.45;2.33;;;13.80;99.90;;;;;;6338000;22;20011;-82
2021/04/23 07:24:34;;;;;;;4.97;2.65;;;13.90;99.90;;;;;;6337752;22;20301;-83
2021/04/23 07:27:00;;;;;;;7.45;3.03;;;13.90;99.90;;;;;;6337715;22;20006;-83
2021/04/23 07:29:26;;;;;;;5.45;2.22;;;13.90;99.90;;;;;;6337907;22;20003;-82
2021/04/23 07:31:52;;;;;;;4.17;3.10;;;13.90;99.90;;;;;;6338587;22;20328;-82
2021/04/23 07:34:18;;;;;;;5.57;3.00;;;13.90;99.90;;;;;;6311997;22;20297;-82
2021/04/23 07:36:44;;;;;;;7.70;3.42;;;13.90;99.90;;;;;;6339544;22;20717;-83
2021/04/23 07:39:11;;;;;;;5.75;2.25;;;13.90;99.90;;;;;;6340051;22;20006;-82
2021/04/23 07:41:39;;;;;;;4.75;2.10;;;13.90;99.90;;;;;;6340406;22;20045;-83
2021/04/23 07:44:05;;;;;;;5.03;2.40;;;13.80;99.90;;;;;;6339726;22;20018;-82
2021/04/23 07:46:32;;;;;;;6.20;2.38;;;13.90;99.90;;;;;;6339702;22;20063;-83
2021/04/23 07:48:58;;;;;;;4.18;2.58;;;13.80;99.90;;;;;;6339572;22;20044;-83
2021/04/23 07:51:24;;;;;;;6.72;2.70;;;13.90;99.90;;;;;;6339466;22;20356;-82
2021/04/23 07:53:50;;;;;;;4.45;2.50;;;13.90;99.90;;;;;;6339318;22;20006;-83
2021/04/23 07:56:16;;;;;;;6.50;3.45;;;13.90;99.90;;;;;;6312063;22;20438;-82
2021/04/23 07:58:42;;;;;;;4.53;2.65;;;13.90;99.90;;;;;;6338943;22;20007;-82
2021/04/23 08:01:08;;;;;;;4.90;2.70;;;14.00;99.90;;;;;;6339505;22;20017;-82
2021/04/23 08:03:34;;;;;;;10.98;2.95;;;13.90;99.90;;;;;;6339190;22;20009;-83
2021/04/23 08:06:00;;;;;;;6.22;2.80;;;13.90;99.90;;;;;;6339295;22;20073;-83
2021/04/23 08:08:26;;;;;;;2.88;2.58;;;14.00;99.90;;;;;;6339136;22;20014;-82
2021/04/23 08:10:52;;;;;;;6.82;2.95;;;14.00;99.90;;;;;;6339292;22;19999;-83
2021/04/23 08:13:18;;;;;;;3.45;2.22;;;14.00;99.90;;;;;;6339230;22;20006;-77
2021/04/23 08:15:44;;;;;;;5.88;2.35;;;14.10;99.90;;;;;;6339222;22;20536;-82
2021/04/23 08:18:10;;;;;;;3.45;2.30;;;14.10;99.90;;;;;;6339776;22;20007;-83
2021/04/23 08:20:36;;;;;;;4.07;2.30;;;14.10;99.90;;;;;;6311359;22;20091;-83
2021/04/23 08:23:02;;;;;;;6.63;2.97;;;14.10;99.90;;;;;;6311654;22;20009;-82
2021/04/23 08:25:28;;;;;;;5.00;2.45;;;14.20;99.90;;;;;;6311635;22;19998;-83
2021/04/23 08:27:54;;;;;;;4.22;2.42;;;14.20;99.90;;;;;;6339045;22;20048;-77
2021/04/23 08:30:23;;;;;;;6.32;2.60;;;14.30;99.90;;;;;;6339482;22;20007;-83
2021/04/23 08:32:49;;;;;;;4.00;2.60;;;14.30;99.90;;;;;;6339025;22;20010;-83
2021/04/23 08:35:15;;;;;;;4.03;2.30;;;14.40;99.90;;;;;;6339284;22;20070;-83
2021/04/23 08:37:42;;;;;;;6.15;2.42;;;14.40;99.90;;;;;;6338971;22;20482;-83
2021/04/23 08:40:10;;;;;;;6.75;2.50;;;14.50;99.90;;;;;;6338959;22;20065;-83
2021/04/23 08:42:36;;;;;;;7.28;3.10;;;14.60;99.90;;;;;;6338872;22;20046;-82
2021/04/23 08:45:07;;;;;;;3.97;2.38;;;14.60;99.90;;;;;;6339055;22;20002;-82
2021/04/23 08:47:34;;;;;;;5.70;2.70;;;14.70;99.90;;;;;;6311299;22;20068;-80
2021/04/23 08:50:01;;;;;;;5.40;2.83;;;14.70;99.90;;;;;;6338991;22;19999;-83
2021/04/23 08:52:28;;;;;;;4.65;2.03;;;14.80;99.90;;;;;;6338878;22;19995;-82
2021/04/23 08:54:56;;;;;;;2.95;2.00;;;14.80;99.90;;;;;;6339842;22;20018;-84
2021/04/23 08:57:22;;;;;;;3.33;2.00;;;14.90;99.90;;;;;;6339612;22;20408;-82
2021/04/23 08:59:48;;;;;;;3.40;2.00;;;14.90;99.90;;;;;;6338736;22;20056;-82
2021/04/23 09:02:13;;;;;;;4.17;2.43;;;15.00;99.90;;;;;;6339102;22;20082;-82
2021/04/23 09:04:40;;;;;;;3.90;2.10;;;15.10;99.90;;;;;;6338868;22;20294;-83
2021/04/23 09:07:07;;;;;;;3.83;1.80;;;15.10;99.90;;;;;;6338986;22;20003;-83
2021/04/23 09:09:42;;;;;;;4.70;1.80;;;15.20;99.90;;;;;;6338660;22;20412;-81
2021/04/23 09:12:25;;;;;;;6.63;2.08;;;15.20;99.90;;;;;;6338924;22;20069;-83
2021/04/23 09:14:53;;;;;;;5.15;2.00;;;15.30;99.90;;;;;;6311405;22;20003;-83
2021/04/23 09:17:24;;;;;;;2.70;1.80;;;15.30;99.90;;;;;;6338997;22;20424;-81
2021/04/23 09:19:52;;;;;;;4.53;2.25;;;15.40;99.90;;;;;;6338577;22;20009;-82
2021/04/23 09:22:18;;;;;;;5.30;2.20;;;15.40;99.90;;;;;;6338559;22;20013;-82
2021/04/23 09:25:08;;;;;;;4.63;2.00;;;15.60;99.90;;;;;;6340854;22;19999;-83
2021/04/23 09:27:40;;;;;;;4.30;1.70;;;15.80;99.90;;;;;;6346972;22;20024;-83
2021/04/23 09:30:11;;;;;;;4.10;2.13;;;15.90;99.90;;;;;;6346640;22;20437;-82
2021/04/23 09:32:42;;;;;;;5.70;2.65;;;16.00;99.90;;;;;;6342218;22;20014;-83
2021/04/23 09:35:11;;;;;;;4.28;2.20;;;16.10;99.90;;;;;;6338574;22;20005;-82
2021/04/23 09:37:55;;;;;;;4.00;1.77;;;16.30;99.90;;;;;;6338590;22;19999;-83
2021/04/23 09:40:39;;;;;;;5.13;2.20;;;16.40;99.90;;;;;;6311068;22;20026;-82
2021/04/23 09:43:06;;;;;;;4.78;2.15;;;16.60;99.90;;;;;;6338548;22;20060;-83
2021/04/23 09:45:51;;;;;;;3.65;1.92;;;16.70;99.90;;;;;;6310859;22;20006;-83
2021/04/23 09:48:24;;;;;;;3.00;1.40;;;16.70;99.90;;;;;;6338297;22;20040;-83
2021/04/23 09:50:51;;;;;;;3.50;2.30;;;16.70;99.90;;;;;;6338452;22;20015;-83
2021/04/23 09:53:27;;;;;;;3.03;1.60;;;16.70;99.90;;;;;;6338360;22;20017;-84
2021/04/23 09:55:55;;;;;;;6.72;2.70;;;16.70;99.90;;;;;;6338372;22;20032;-84
2021/04/23 09:58:21;;;;;;;6.00;1.77;;;16.70;99.90;;;;;;6337975;22;20129;-83
2021/04/23 10:00:58;;;;;;;5.95;2.20;;;16.70;99.90;;;;;;6338170;22;20011;-83
2021/04/23 10:03:34;;;;;;;9.18;1.83;;;16.80;99.90;;;;;;6338359;22;20044;-84
2021/04/23 10:06:21;;;;;;;5.30;2.40;;;16.80;99.90;;;;;;6338434;22;20317;-84
2021/04/23 10:08:47;;;;;;;4.13;2.20;;;17.00;99.90;;;;;;6311025;22;20007;-84
2021/04/23 10:11:13;;;;;;;4.75;2.05;;;17.10;99.90;;;;;;6339135;22;20002;-84
2021/04/23 10:13:39;;;;;;;4.30;2.00;;;17.30;99.90;;;;;;6338420;22;20001;-83
2021/04/23 10:16:05;;;;;;;5.32;1.75;;;17.50;99.90;;;;;;6338990;22;20229;-83
2021/04/23 10:18:32;;;;;;;3.88;1.58;;;17.70;99.90;;;;;;6338110;22;20015;-81
2021/04/23 10:20:59;;;;;;;3.85;2.13;;;17.90;99.90;;;;;;6338177;22;20010;-81
2021/04/23 10:23:28;;;;;;;2.42;1.25;;;17.90;99.90;;;;;;6338162;22;20003;-83
2021/04/23 10:25:55;;;;;;;5.30;1.83;;;17.90;99.90;;;;;;6338216;22;20052;-83
2021/04/23 10:28:23;;;;;;;5.00;2.17;;;17.80;99.90;;;;;;6338111;22;20007;-83
2021/04/23 10:30:52;;;;;;;4.00;1.85;;;17.70;99.90;;;;;;6338188;22;20010;-83
2021/04/23 10:33:23;;;;;;;1.58;1.33;;;17.70;99.90;;;;;;6338383;22;20005;-82
2021/04/23 10:35:51;;;;;;;3.78;1.52;;;17.60;99.90;;;;;;6338359;22;19999;-83
2021/04/23 10:38:26;;;;;;;2.60;1.80;;;17.60;99.90;;;;;;6338312;22;20123;-81
2021/04/23 10:40:58;;;;;;;2.83;1.58;;;17.50;99.90;;;;;;6338292;22;20057;-79
2021/04/23 10:43:25;;;;;;;4.35;2.70;;;17.40;99.90;;;;;;6338169;22;20010;-82
2021/04/23 10:46:12;;;;;;;3.50;1.55;;;17.20;99.90;;;;;;6338279;22;20003;-84
2021/04/23 10:48:43;;;;;;;6.85;2.55;;;17.10;99.90;;;;;;6310267;22;20441;-83
2021/04/23 10:51:11;;;;;;;3.22;1.73;;;17.00;99.90;;;;;;6338175;22;20052;-83
2021/04/23 10:53:46;;;;;;;2.20;1.55;;;16.90;99.90;;;;;;6310690;22;20082;-82
2021/04/23 10:56:21;;;;;;;2.15;1.23;;;16.90;99.90;;;;;;6338355;22;20003;-84
2021/04/23 10:58:47;;;;;;;4.88;1.90;;;16.80;99.90;;;;;;6304947;22;20345;-83
2021/04/23 11:01:14;;;;;;;2.90;2.10;;;16.80;99.90;;;;;;6305038;22;20383;-81
2021/04/23 11:03:44;;;;;;;9.18;2.75;;;16.70;99.90;;;;;;6306726;22;20003;-82
2021/04/23 11:06:13;;;;;;;4.28;2.53;;;16.80;99.90;;;;;;6305643;22;20353;-82
2021/04/23 11:09:03;;;;;;;2.88;1.95;;;16.70;99.90;;;;;;6308594;22;20069;-82
2021/04/23 11:11:36;;;;;;;2.58;1.77;;;16.80;99.90;;;;;;6308693;22;20078;-83
2021/04/23 11:14:28;;;;;;;;;;;16.80;99.90;;;;;;6309596;22;20022;-82
2021/04/23 11:17:15;;;;;;;3.75;2.85;;;16.90;99.90;;;;;;6302794;22;19903;-83
2021/04/23 11:19:41;;;;;;;4.53;1.83;;;16.90;99.90;;;;;;6306647;22;20011;-81
2021/04/23 11:22:10;;;;;;;3.45;1.80;;;17.00;99.90;;;;;;6308588;22;20011;-83
2021/04/23 11:24:37;;;;;;;4.20;1.73;;;17.10;99.90;;;;;;6309239;22;20066;-83
2021/04/23 11:27:09;;;;;;;4.78;1.90;;;17.20;99.90;;;;;;6308749;22;20000;-83
2021/04/23 11:29:39;;;;;;;6.63;1.38;;;17.30;99.90;;;;;;6308239;22;20006;-83
2021/04/23 11:32:14;;;;;;;4.13;1.45;;;17.40;99.90;;;;;;6308455;22;20019;-83
2021/04/23 11:34:43;;;;;;;3.50;1.90;;;17.50;99.90;;;;;;6308725;22;20204;-83
2021/04/23 11:37:14;;;;;;;3.22;1.60;;;17.70;99.90;;;;;;6308350;22;20002;-83
2021/04/23 11:39:51;;;;;;;2.53;1.73;;;17.80;99.90;;;;;;6308306;22;20007;-83
2021/04/23 11:42:31;;;;;;;3.33;2.28;;;18.10;99.90;;;;;;6308544;22;20015;-83
2021/04/23 11:45:06;;;;;;;5.95;2.00;;;18.20;99.90;;;;;;6308040;22;19995;-83
2021/04/23 11:47:34;;;;;;;3.30;1.83;;;18.30;99.90;;;;;;6308405;22;20065;-83
2021/04/23 11:50:35;;;;;;;4.38;1.80;;;18.30;99.90;;;;;;6308147;22;19999;-83
2021/04/23 11:53:13;;;;;;;3.13;1.58;;;18.30;99.90;;;;;;6286782;22;20007;-83
2021/04/23 11:55:45;;;;;;;1.98;1.67;;;18.40;99.90;;;;;;6308123;22;20030;-83
2021/04/23 11:58:14;;;;;;;4.28;1.60;;;18.10;99.90;;;;;;6320378;22;20018;-83
2021/04/23 12:00:43;;;;;;;2.22;1.63;;;18.10;99.90;;;;;;6339048;22;20080;-83
2021/04/23 12:03:14;;;;;;;1.73;1.40;;;18.30;99.90;;;;;;6311957;22;20013;-83
2021/04/23 12:05:41;;;;;;;4.63;1.38;;;18.20;99.90;;;;;;6311615;22;20007;-83
2021/04/23 12:08:17;;;;;;;3.70;1.45;;;18.10;99.90;;;;;;6339264;22;20009;-83
2021/04/23 12:10:49;;;;;;;7.43;1.63;;;18.30;99.90;;;;;;6339180;22;20013;-83
2021/04/23 12:13:26;;;;;;;2.45;1.67;;;18.50;99.90;;;;;;6339158;22;19995;-83
2021/04/23 12:16:03;;;;;;;2.55;1.70;;;18.80;99.90;;;;;;6339474;22;20314;-82
2021/04/23 12:18:30;;;;;;;4.43;1.40;;;19.10;99.90;;;;;;6339101;22;20029;-83
2021/04/23 12:20:59;;;;;;;4.45;2.03;;;19.20;99.90;;;;;;6339026;22;20478;-82
2021/04/23 12:23:32;;;;;;;3.63;2.42;;;19.50;99.90;;;;;;6338972;22;20033;-84
2021/04/23 12:26:02;;;;;;;3.05;1.70;;;19.60;99.90;;;;;;6311538;22;20053;-83
2021/04/23 12:28:41;;;;;;;3.28;1.58;;;19.90;99.90;;;;;;6311451;22;20007;-83
2021/04/23 12:31:18;;;;;;;7.05;1.75;;;19.90;99.90;;;;;;6339057;22;20021;-84
2021/04/23 12:33:44;;;;;;;3.72;1.30;;;19.80;99.90;;;;;;6339127;22;20413;-83
2021/04/23 12:36:33;;;;;;;2.83;1.57;;;20.00;99.90;;;;;;6311788;22;20022;-83
2021/04/23 12:39:04;;;;;;;4.18;1.63;;;20.00;99.90;;;;;;6312320;22;20308;-84
2021/04/23 12:41:35;;;;;;;4.82;2.30;;;20.20;99.90;;;;;;6338969;22;20011;-84
2021/04/23 12:44:07;;;;;;;2.90;1.92;;;20.20;99.90;;;;;;6338861;22;20332;-84
2021/04/23 12:46:45;;;;;;;3.60;1.63;;;20.30;99.90;;;;;;6339069;22;19999;-84
2021/04/23 12:49:18;;;;;;;3.78;1.45;;;20.40;99.90;;;;;;6339131;22;20003;-84
2021/04/23 12:51:51;;;;;;;2.92;1.40;;;20.50;99.90;;;;;;6339114;22;20090;-84
2021/04/23 12:54:19;;;;;;;3.50;1.90;;;20.50;99.90;;;;;;6339216;22;20429;-84
2021/04/23 12:56:54;;;;;;;2.08;1.70;;;20.50;99.90;;;;;;6338857;22;20088;-84